Time;durP1;ratioP1;P1;durP2;ratioP2;P2;SDS_P1;SDS_P2;PMS_P1;PMS_P2;Temp;Humidity;BMP_temperature;BMP_pressure;BME280_temperature;BME280_humidity;BME280_pressure;Samples;Min_cycle;Max_cycle;Signal;HPM_P1;HPM_P2
2023/01/04 00:01:39;;;;;;;146.60;68.97;;;;;;;;;;6254717;28;20029;-74
2023/01/04 00:04:39;;;;;;;149.27;75.33;;;;;;;;;;6250429;28;20041;-74
2023/01/04 00:07:39;;;;;;;136.82;71.18;;;;;;;;;;6271435;28;20040;-74
2023/01/04 00:10:40;;;;;;;131.98;70.03;;;;;;;;;;6269174;28;20025;-74
2023/01/04 00:13:40;;;;;;;133.90;69.00;;;;;;;;;;6272434;28;20025;-74
2023/01/04 00:16:40;;;;;;;119.93;56.03;;;;;;;;;;6278108;28;20039;-75
2023/01/04 00:19:40;;;;;;;113.57;52.43;;;;;;;;;;6271543;28;20114;-75
2023/01/04 00:22:40;;;;;;;111.15;57.97;;;;;;;;;;6271365;28;20061;-74
2023/01/04 00:25:41;;;;;;;123.43;63.30;;;;;;;;;;6268941;28;20025;-75
2023/01/04 00:28:41;;;;;;;131.32;59.42;;;;;;;;;;6272452;28;20029;-75
2023/01/04 00:31:43;;;;;;;141.03;62.60;;;;;;;;;;6268461;28;20087;-75
2023/01/04 00:34:43;;;;;;;;;;;;;;;;;;6274647;28;20028;-75
2023/01/04 00:37:43;;;;;;;205.98;74.57;;;;;;;;;;6271900;28;19908;-76
2023/01/04 00:40:43;;;;;;;170.80;70.20;;;;;;;;;;6271154;28;20048;-76
2023/01/04 00:43:44;;;;;;;157.80;63.47;;;;;;;;;;6271960;28;20448;-76
2023/01/04 00:46:44;;;;;;;121.05;54.47;;;;;;;;;;6273655;28;20029;-77
2023/01/04 00:49:44;;;;;;;153.70;66.17;;;;;;;;;;6270308;28;20060;-77
2023/01/04 00:52:44;;;;;;;177.30;76.33;;;;;;;;;;6265671;28;20110;-78
2023/01/04 00:55:44;;;;;;;180.83;82.13;;;;;;;;;;6271966;28;20017;-77
2023/01/04 00:58:45;;;;;;;194.80;83.53;;;;;;;;;;6253815;28;20083;-77
2023/01/04 01:01:45;;;;;;;167.57;69.53;;;;;;;;;;6265536;28;20044;-77
2023/01/04 01:04:45;;;;;;;220.20;88.67;;;;;;;;;;6269285;28;20021;-77
2023/01/04 01:07:45;;;;;;;226.27;87.20;;;;;;;;;;6254471;28;20024;-78
2023/01/04 01:10:46;;;;;;;177.80;81.37;;;;;;;;;;6271450;28;20025;-78
2023/01/04 01:13:46;;;;;;;196.40;80.17;;;;;;;;;;6254649;28;20464;-79
2023/01/04 01:16:47;;;;;;;179.67;84.50;;;;;;;;;;6253934;28;20445;-80
2023/01/04 01:19:47;;;;;;;189.33;86.90;;;;;;;;;;6265667;28;20037;-81
2023/01/04 01:22:47;;;;;;;135.40;66.77;;;;;;;;;;6248924;28;20282;-81
2023/01/04 01:25:47;;;;;;;155.65;71.78;;;;;;;;;;6270936;28;20041;-81
2023/01/04 01:28:48;;;;;;;154.87;70.97;;;;;;;;;;6272417;28;20499;-83
2023/01/04 01:31:48;;;;;;;179.63;76.57;;;;;;;;;;6265247;28;20465;-82
2023/01/04 01:34:48;;;;;;;194.20;91.37;;;;;;;;;;6273230;28;20036;-82
2023/01/04 01:37:48;;;;;;;199.90;93.10;;;;;;;;;;6272184;28;20423;-82
2023/01/04 01:40:48;;;;;;;191.27;88.40;;;;;;;;;;6249828;28;20029;-83
2023/01/04 01:43:54;;;;;;;175.83;79.20;;;;;;;;;;6270308;28;20032;-81
2023/01/04 01:46:54;;;;;;;204.25;85.68;;;;;;;;;;6251592;28;20029;-81
2023/01/04 01:49:54;;;;;;;190.17;80.30;;;;;;;;;;6255682;28;20040;-81
2023/01/04 01:52:57;;;;;;;193.60;83.40;;;;;;;;;;6250831;28;20040;-81
2023/01/04 01:55:58;;;;;;;207.90;84.03;;;;;;;;;;6259476;28;20108;-80
2023/01/04 01:58:59;;;;;;;182.43;84.47;;;;;;;;;;6272686;28;20086;-79
2023/01/04 02:02:00;;;;;;;192.77;90.78;;;;;;;;;;6261681;28;20017;-79
2023/01/04 02:05:00;;;;;;;182.90;83.83;;;;;;;;;;6260857;28;20488;-80
2023/01/04 02:08:01;;;;;;;171.53;85.70;;;;;;;;;;6275741;28;20051;-78
2023/01/04 02:11:02;;;;;;;156.53;82.43;;;;;;;;;;6264665;28;20521;-79
2023/01/04 02:17:25;;;;;;;159.77;68.82;;;;;;;;;;6272862;28;20059;-78
2023/01/04 02:20:25;;;;;;;159.57;77.47;;;;;;;;;;6256965;28;20028;-78
2023/01/04 02:23:26;;;;;;;151.43;73.17;;;;;;;;;;6256337;28;20435;-77
2023/01/04 02:26:40;;;;;;;153.07;72.13;;;;;;;;;;6262198;28;20029;-77
2023/01/04 02:29:56;;;;;;;146.50;74.40;;;;;;;;;;6278724;28;20036;-77
2023/01/04 02:33:06;;;;;;;149.43;69.05;;;;;;;;;;6270756;28;20013;-78
2023/01/04 02:36:26;;;;;;;142.50;71.95;;;;;;;;;;6274448;28;20017;-78
2023/01/04 02:39:26;;;;;;;141.48;70.43;;;;;;;;;;6274949;28;20013;-77
2023/01/04 02:44:51;;;;;;;154.30;73.05;;;;;;;;;;6250226;28;20074;-77
2023/01/04 02:45:53;;;;;;;154.45;74.53;;;;;;;;;;6274240;28;20025;-77
2023/01/04 02:52:16;;;;;;;148.77;76.97;;;;;;;;;;6273195;28;20036;-77
2023/01/04 02:55:16;;;;;;;149.10;79.13;;;;;;;;;;6270178;28;20078;-77
2023/01/04 02:58:22;;;;;;;160.20;65.83;;;;;;;;;;6275607;28;20377;-77
2023/01/04 03:08:06;;;;;;;;;;;;;;;;;;6275275;28;20005;-77
2023/01/04 03:14:29;;;;;;;146.55;75.63;;;;;;;;;;6274204;28;20025;-77
2023/01/04 03:17:34;;;;;;;153.32;77.20;;;;;;;;;;6270623;28;20469;-77
2023/01/04 03:20:35;;;;;;;155.65;75.15;;;;;;;;;;6273472;28;20119;-77
2023/01/04 03:37:04;;;;;;;128.77;62.88;;;;;;;;;;6267337;28;20033;-77
2023/01/04 03:50:56;;;;;;;142.50;66.28;;;;;;;;;;6274383;28;20033;-78
2023/01/04 03:53:59;;;;;;;145.70;67.18;;;;;;;;;;6280220;28;20095;-78
2023/01/04 03:57:00;;;;;;;141.30;70.32;;;;;;;;;;6278867;28;20017;-78
2023/01/04 04:00:08;;;;;;;158.60;73.13;;;;;;;;;;6277282;28;20028;-78
2023/01/04 04:03:09;;;;;;;157.88;67.70;;;;;;;;;;6279961;28;20020;-78
2023/01/04 04:09:28;;;;;;;171.52;75.00;;;;;;;;;;6274440;28;20061;-78
2023/01/04 04:12:28;;;;;;;166.13;74.03;;;;;;;;;;6280672;28;20109;-78
2023/01/04 04:15:29;;;;;;;149.93;71.83;;;;;;;;;;6261406;28;20085;-78
2023/01/04 04:18:29;;;;;;;160.83;68.47;;;;;;;;;;6279901;28;20053;-78
2023/01/04 04:21:29;;;;;;;153.37;68.10;;;;;;;;;;6270689;28;20005;-78
2023/01/04 04:24:30;;;;;;;125.40;63.53;;;;;;;;;;6286432;28;20044;-78
2023/01/04 04:27:30;;;;;;;161.37;70.00;;;;;;;;;;6273833;28;20028;-78
2023/01/04 04:30:30;;;;;;;166.47;75.20;;;;;;;;;;6267670;28;20029;-78
2023/01/04 04:33:30;;;;;;;153.82;73.32;;;;;;;;;;6290507;28;20473;-79
2023/01/04 04:36:31;;;;;;;156.77;74.40;;;;;;;;;;6270846;28;20027;-78
2023/01/04 04:39:32;;;;;;;151.97;69.73;;;;;;;;;;6280811;28;20019;-78
2023/01/04 04:42:32;;;;;;;142.00;67.63;;;;;;;;;;6271499;28;20088;-78
2023/01/04 04:45:33;;;;;;;149.50;66.83;;;;;;;;;;6289151;28;20081;-79
2023/01/04 04:48:33;;;;;;;130.47;64.50;;;;;;;;;;6265788;28;20059;-79
2023/01/04 04:51:33;;;;;;;126.30;60.33;;;;;;;;;;6274650;28;20017;-80
2023/01/04 04:54:33;;;;;;;115.97;59.53;;;;;;;;;;6272781;28;20013;-78
2023/01/04 04:57:34;;;;;;;109.33;54.97;;;;;;;;;;6271790;28;20020;-78
2023/01/04 05:00:34;;;;;;;117.78;55.63;;;;;;;;;;6253186;28;20484;-79
2023/01/04 05:03:34;;;;;;;129.40;65.57;;;;;;;;;;6251839;28;20013;-78
2023/01/04 05:06:34;;;;;;;115.50;55.70;;;;;;;;;;6252322;28;20018;-78
2023/01/04 05:09:34;;;;;;;117.10;59.47;;;;;;;;;;6270084;28;20605;-78
2023/01/04 05:15:54;;;;;;;133.07;62.05;;;;;;;;;;6266226;28;20029;-78
2023/01/04 05:18:54;;;;;;;120.87;63.73;;;;;;;;;;6270323;28;20533;-78
2023/01/04 05:21:54;;;;;;;130.63;62.70;;;;;;;;;;6269198;28;20450;-78
2023/01/04 05:24:54;;;;;;;100.57;47.75;;;;;;;;;;6247484;28;20497;-78
2023/01/04 05:27:54;;;;;;;119.03;62.20;;;;;;;;;;6271312;28;20383;-78
2023/01/04 05:30:55;;;;;;;121.20;59.30;;;;;;;;;;6247414;28;20033;-79
2023/01/04 05:33:55;;;;;;;118.83;57.57;;;;;;;;;;6247906;28;20496;-79
2023/01/04 05:36:55;;;;;;;118.40;61.10;;;;;;;;;;6270860;28;20431;-78
2023/01/04 05:39:55;;;;;;;115.57;59.50;;;;;;;;;;6250762;28;20116;-79
2023/01/04 05:42:56;;;;;;;136.40;66.28;;;;;;;;;;6268970;28;20020;-79
2023/01/04 05:45:56;;;;;;;129.37;57.13;;;;;;;;;;6251764;28;20016;-79
2023/01/04 05:48:56;;;;;;;114.00;59.55;;;;;;;;;;6246845;28;20568;-79
2023/01/04 05:51:56;;;;;;;113.68;58.33;;;;;;;;;;6254471;28;20066;-79
2023/01/04 05:54:56;;;;;;;118.60;57.70;;;;;;;;;;6270723;28;20075;-79
2023/01/04 05:58:00;;;;;;;116.77;60.30;;;;;;;;;;6273054;28;20040;-80
2023/01/04 06:01:00;;;;;;;120.68;59.50;;;;;;;;;;6272884;28;20487;-79
2023/01/04 06:04:00;;;;;;;124.83;61.87;;;;;;;;;;6246469;28;20120;-79
2023/01/04 06:07:00;;;;;;;118.68;59.15;;;;;;;;;;6269206;28;20048;-79
2023/01/04 06:10:00;;;;;;;125.03;63.45;;;;;;;;;;6254001;28;20028;-80
2023/01/04 06:13:00;;;;;;;123.23;60.57;;;;;;;;;;6270898;28;20032;-80
2023/01/04 06:16:01;;;;;;;130.33;61.07;;;;;;;;;;6271683;28;20021;-79
2023/01/04 06:19:01;;;;;;;95.03;45.70;;;;;;;;;;6244851;28;20199;-80
2023/01/04 06:22:01;;;;;;;117.77;59.60;;;;;;;;;;6244286;28;20076;-80
2023/01/04 06:25:02;;;;;;;122.50;59.47;;;;;;;;;;6243698;28;20277;-81
2023/01/04 06:28:02;;;;;;;115.23;55.87;;;;;;;;;;6245770;28;20029;-80
2023/01/04 06:31:03;;;;;;;114.23;56.63;;;;;;;;;;6244413;28;20076;-80
2023/01/04 06:34:04;;;;;;;102.57;52.13;;;;;;;;;;6243046;28;20022;-80
2023/01/04 06:37:04;;;;;;;108.53;49.67;;;;;;;;;;6243604;28;20071;-80
2023/01/04 06:40:05;;;;;;;103.13;51.80;;;;;;;;;;6248199;28;20060;-80
2023/01/04 06:43:05;;;;;;;108.20;53.20;;;;;;;;;;6247511;28;20563;-81
2023/01/04 06:46:05;;;;;;;116.20;56.67;;;;;;;;;;6247268;28;20021;-81
2023/01/04 06:49:06;;;;;;;117.17;58.30;;;;;;;;;;6249102;28;20033;-81
2023/01/04 06:52:06;;;;;;;116.77;58.83;;;;;;;;;;6250434;28;20055;-81
2023/01/04 06:55:08;;;;;;;119.03;56.90;;;;;;;;;;6251041;28;20017;-81
2023/01/04 06:58:08;;;;;;;103.88;52.63;;;;;;;;;;6250257;28;20356;-82
2023/01/04 07:01:08;;;;;;;98.70;52.13;;;;;;;;;;6260270;28;20470;-82
2023/01/04 07:04:08;;;;;;;107.40;53.53;;;;;;;;;;6256095;28;20017;-82
2023/01/04 07:07:09;;;;;;;103.38;50.38;;;;;;;;;;6244501;28;20005;-82
2023/01/04 07:10:09;;;;;;;110.50;58.13;;;;;;;;;;6250161;28;20072;-82
2023/01/04 07:13:09;;;;;;;121.10;62.83;;;;;;;;;;6251085;28;20032;-82
2023/01/04 07:16:10;;;;;;;105.63;57.50;;;;;;;;;;6251611;28;20088;-82
2023/01/04 07:19:10;;;;;;;99.37;52.70;;;;;;;;;;6251786;28;20096;-82
2023/01/04 07:22:10;;;;;;;117.53;52.93;;;;;;;;;;6254840;28;20010;-83
2023/01/04 07:25:10;;;;;;;102.80;50.20;;;;;;;;;;6247716;28;20088;-83
2023/01/04 07:28:10;;;;;;;91.37;50.43;;;;;;;;;;6254055;28;20093;-83
2023/01/04 07:31:11;;;;;;;109.05;52.40;;;;;;;;;;6249952;28;20128;-83
2023/01/04 07:34:11;;;;;;;103.82;54.08;;;;;;;;;;6253187;28;20172;-84
2023/01/04 07:37:12;;;;;;;109.37;55.97;;;;;;;;;;6252072;28;20076;-83
2023/01/04 07:40:12;;;;;;;100.30;51.20;;;;;;;;;;6251406;28;20035;-83
2023/01/04 07:43:13;;;;;;;93.67;51.40;;;;;;;;;;6248638;28;20021;-82
2023/01/04 07:46:13;;;;;;;100.90;53.90;;;;;;;;;;6251958;28;20013;-82
2023/01/04 07:49:17;;;;;;;101.93;55.10;;;;;;;;;;6250270;28;20020;-81
2023/01/04 07:52:17;;;;;;;94.15;48.63;;;;;;;;;;6249815;28;20035;-80
2023/01/04 07:55:17;;;;;;;93.50;50.23;;;;;;;;;;6249241;28;20025;-80
2023/01/04 07:58:18;;;;;;;87.60;52.23;;;;;;;;;;6247351;28;20025;-80
2023/01/04 08:01:18;;;;;;;102.95;55.97;;;;;;;;;;6250323;28;20493;-81
2023/01/04 08:04:21;;;;;;;105.97;57.83;;;;;;;;;;6242094;28;20022;-81
2023/01/04 08:07:21;;;;;;;101.78;56.58;;;;;;;;;;6250390;28;20021;-81
2023/01/04 08:10:21;;;;;;;100.07;54.13;;;;;;;;;;6250347;28;20060;-81
2023/01/04 08:13:22;;;;;;;95.77;55.87;;;;;;;;;;6248738;28;20120;-81
2023/01/04 08:16:23;;;;;;;109.80;59.10;;;;;;;;;;6252532;28;20028;-81
2023/01/04 08:19:24;;;;;;;112.97;64.45;;;;;;;;;;6258108;28;20045;-81
2023/01/04 08:22:24;;;;;;;100.93;58.10;;;;;;;;;;6249572;28;20025;-81
2023/01/04 08:25:24;;;;;;;117.57;59.88;;;;;;;;;;6244278;28;20018;-81
2023/01/04 08:28:24;;;;;;;97.13;58.50;;;;;;;;;;6248710;28;20428;-81
2023/01/04 08:31:29;;;;;;;116.03;63.50;;;;;;;;;;6245721;28;20036;-82
2023/01/04 08:34:30;;;;;;;100.78;57.13;;;;;;;;;;6249488;28;20021;-81
2023/01/04 08:37:31;;;;;;;92.35;57.85;;;;;;;;;;6247556;28;20029;-81
2023/01/04 08:40:31;;;;;;;103.37;59.43;;;;;;;;;;6248789;28;20389;-81
2023/01/04 08:43:31;;;;;;;108.63;60.73;;;;;;;;;;6245851;28;20044;-81
2023/01/04 08:46:33;;;;;;;101.33;57.83;;;;;;;;;;6251790;28;20030;-82
2023/01/04 08:49:33;;;;;;;101.57;56.10;;;;;;;;;;6250046;28;20021;-82
2023/01/04 08:52:33;;;;;;;83.97;45.77;;;;;;;;;;6247753;28;20420;-82
2023/01/04 08:55:33;;;;;;;102.93;56.57;;;;;;;;;;6241926;28;20095;-81
2023/01/04 08:58:34;;;;;;;88.75;57.45;;;;;;;;;;6242345;28;20104;-81
2023/01/04 09:01:34;;;;;;;101.87;64.90;;;;;;;;;;6242777;28;20024;-81
2023/01/04 09:04:35;;;;;;;88.20;54.27;;;;;;;;;;6247211;28;20010;-82
2023/01/04 09:07:35;;;;;;;93.80;54.90;;;;;;;;;;6247417;28;20013;-82
2023/01/04 09:10:37;;;;;;;74.17;43.80;;;;;;;;;;6247853;28;20454;-81
2023/01/04 09:13:37;;;;;;;;;;;;;;;;;;6247864;28;20021;-81
2023/01/04 09:16:37;;;;;;;76.10;44.07;;;;;;;;;;6239471;28;19916;-80
2023/01/04 09:19:37;;;;;;;72.00;44.67;;;;;;;;;;6264352;28;20889;-79
2023/01/04 09:22:38;;;;;;;54.53;34.20;;;;;;;;;;6272108;28;20017;-79
2023/01/04 09:25:38;;;;;;;57.97;33.73;;;;;;;;;;6253096;28;20430;-79
2023/01/04 09:28:39;;;;;;;51.47;32.20;;;;;;;;;;6253659;28;20013;-79
2023/01/04 09:31:39;;;;;;;53.73;31.57;;;;;;;;;;6272489;28;20017;-79
2023/01/04 09:34:39;;;;;;;41.97;28.60;;;;;;;;;;6247052;28;20018;-79
2023/01/04 09:37:40;;;;;;;42.33;26.90;;;;;;;;;;6271207;28;20024;-78
2023/01/04 09:40:46;;;;;;;45.30;28.27;;;;;;;;;;6252354;28;20025;-78
2023/01/04 09:43:48;;;;;;;47.17;29.15;;;;;;;;;;6269960;28;20025;-77
2023/01/04 09:46:50;;;;;;;42.03;27.73;;;;;;;;;;6270921;28;20090;-77
2023/01/04 09:49:50;;;;;;;41.88;27.88;;;;;;;;;;6253560;28;20384;-76
2023/01/04 09:53:03;;;;;;;39.47;26.33;;;;;;;;;;6271426;28;20420;-76
2023/01/04 09:56:08;;;;;;;43.30;27.48;;;;;;;;;;6271145;28;20366;-76
2023/01/04 09:59:13;;;;;;;41.35;26.98;;;;;;;;;;6271880;28;20049;-75
2023/01/04 10:02:17;;;;;;;42.22;28.40;;;;;;;;;;6271074;28;20025;-75
2023/01/04 10:05:22;;;;;;;43.15;28.33;;;;;;;;;;6268509;28;20025;-74
2023/01/04 10:08:23;;;;;;;45.35;28.10;;;;;;;;;;6263957;28;20432;-74
2023/01/04 10:11:34;;;;;;;39.10;26.00;;;;;;;;;;6270363;28;20055;-73
2023/01/04 10:14:53;;;;;;;34.95;25.02;;;;;;;;;;6267539;28;20017;-74
2023/01/04 10:18:03;;;;;;;48.42;27.75;;;;;;;;;;6270613;28;20055;-73
2023/01/04 10:21:15;;;;;;;38.83;25.48;;;;;;;;;;6255662;28;20107;-73
2023/01/04 10:24:34;;;;;;;37.78;23.75;;;;;;;;;;6256845;28;20016;-74
2023/01/04 10:27:46;;;;;;;43.67;25.30;;;;;;;;;;6242580;28;20052;-73
2023/01/04 10:30:53;;;;;;;42.75;24.10;;;;;;;;;;6275591;28;20023;-73
2023/01/04 10:33:54;;;;;;;35.28;21.27;;;;;;;;;;6273605;28;20029;-73
2023/01/04 10:36:58;;;;;;;33.95;19.67;;;;;;;;;;6270107;28;20025;-74
2023/01/04 10:39:59;;;;;;;36.80;21.45;;;;;;;;;;6275159;28;20476;-73
2023/01/04 10:43:16;;;;;;;38.17;20.00;;;;;;;;;;6273951;28;20063;-73
2023/01/04 10:46:20;;;;;;;37.20;20.50;;;;;;;;;;6274783;28;20040;-74
2023/01/04 10:49:28;;;;;;;37.78;20.25;;;;;;;;;;6256745;28;20878;-73
2023/01/04 10:52:28;;;;;;;32.00;19.25;;;;;;;;;;6275146;28;20098;-73
2023/01/04 10:55:32;;;;;;;39.97;18.90;;;;;;;;;;6257355;28;20365;-73
2023/01/04 10:58:48;;;;;;;36.85;19.85;;;;;;;;;;6275878;28;20499;-73
2023/01/04 11:02:03;;;;;;;30.75;19.15;;;;;;;;;;6255896;28;20119;-74
2023/01/04 11:05:12;;;;;;;26.95;16.48;;;;;;;;;;6272631;28;20023;-73
2023/01/04 11:08:12;;;;;;;20.60;11.80;;;;;;;;;;6253609;28;20505;-73
2023/01/04 11:11:19;;;;;;;17.27;9.90;;;;;;;;;;6273324;28;20060;-73
2023/01/04 11:14:20;;;;;;;16.75;8.52;;;;;;;;;;6267882;28;20031;-73
2023/01/04 11:17:22;;;;;;;16.13;8.65;;;;;;;;;;6273774;28;20418;-74
2023/01/04 11:20:22;;;;;;;13.80;7.80;;;;;;;;;;6255138;28;20458;-74
2023/01/04 11:23:22;;;;;;;14.33;7.63;;;;;;;;;;6272867;28;20027;-74
2023/01/04 11:26:28;;;;;;;16.55;6.00;;;;;;;;;;6273116;28;20036;-73
2023/01/04 11:29:39;;;;;;;11.65;7.00;;;;;;;;;;6273362;28;20043;-73
2023/01/04 11:32:49;;;;;;;14.05;5.57;;;;;;;;;;6271265;28;20061;-73
2023/01/04 11:35:50;;;;;;;10.95;5.78;;;;;;;;;;6272575;28;20400;-73
2023/01/04 11:38:54;;;;;;;8.15;4.85;;;;;;;;;;6245318;28;20028;-74
2023/01/04 11:41:56;;;;;;;7.72;5.13;;;;;;;;;;6272436;28;20436;-74
2023/01/04 11:44:58;;;;;;;11.30;5.85;;;;;;;;;;6271076;28;20017;-73
2023/01/04 11:47:59;;;;;;;15.65;5.32;;;;;;;;;;6271087;28;20071;-73
2023/01/04 11:50:59;;;;;;;15.35;6.85;;;;;;;;;;6271361;28;20543;-73
2023/01/04 11:54:00;;;;;;;12.73;5.33;;;;;;;;;;6270579;28;20103;-73
2023/01/04 11:57:09;;;;;;;12.30;5.80;;;;;;;;;;6269604;28;20024;-73
2023/01/04 12:00:14;;;;;;;12.15;6.20;;;;;;;;;;6269882;28;20476;-74
2023/01/04 12:03:17;;;;;;;10.50;6.07;;;;;;;;;;6271740;28;20502;-74
2023/01/04 12:06:40;;;;;;;13.88;6.35;;;;;;;;;;6270372;28;20086;-74
2023/01/04 12:09:40;;;;;;;12.55;6.70;;;;;;;;;;6242354;28;20064;-73
2023/01/04 12:12:40;;;;;;;13.63;6.30;;;;;;;;;;6270428;28;20465;-74
2023/01/04 12:15:46;;;;;;;13.88;6.65;;;;;;;;;;6272613;28;20067;-74
2023/01/04 12:18:47;;;;;;;14.90;7.13;;;;;;;;;;6270470;28;20056;-73
2023/01/04 12:21:51;;;;;;;17.03;8.43;;;;;;;;;;6270694;28;20032;-73
2023/01/04 12:24:53;;;;;;;18.85;8.15;;;;;;;;;;6270054;28;20048;-73
2023/01/04 12:27:56;;;;;;;15.60;8.43;;;;;;;;;;6267265;28;20025;-74
2023/01/04 12:31:19;;;;;;;17.30;10.07;;;;;;;;;;6269690;28;20021;-74
2023/01/04 12:34:22;;;;;;;16.42;8.45;;;;;;;;;;6254704;28;20040;-74
2023/01/04 12:37:44;;;;;;;28.70;14.60;;;;;;;;;;6248637;28;20032;-74
2023/01/04 12:40:48;;;;;;;28.48;14.27;;;;;;;;;;6270920;28;20036;-73
2023/01/04 12:43:48;;;;;;;25.45;13.98;;;;;;;;;;6271195;28;20025;-73
2023/01/04 12:50:12;;;;;;;18.05;7.95;;;;;;;;;;6266151;28;20393;-74
2023/01/04 12:53:12;;;;;;;;;;;;;;;;;;6266910;28;20048;-74
2023/01/04 12:56:12;;;;;;;18.33;9.10;;;;;;;;;;6242736;28;19908;-74
2023/01/04 12:59:13;;;;;;;18.38;8.88;;;;;;;;;;6268383;28;20029;-73
2023/01/04 13:02:15;;;;;;;19.93;9.57;;;;;;;;;;6270115;28;20096;-73
2023/01/04 13:05:15;;;;;;;10.88;6.13;;;;;;;;;;6267313;28;20047;-74
2023/01/04 13:08:15;;;;;;;16.73;9.27;;;;;;;;;;6268916;28;20025;-73
2023/01/04 13:11:27;;;;;;;14.90;7.93;;;;;;;;;;6269315;28;20031;-73
2023/01/04 13:14:41;;;;;;;16.40;8.02;;;;;;;;;;6268348;28;20067;-73
2023/01/04 13:17:42;;;;;;;23.15;8.68;;;;;;;;;;6264995;28;20046;-74
2023/01/04 13:20:42;;;;;;;19.63;8.97;;;;;;;;;;6251020;28;20442;-73
2023/01/04 13:23:48;;;;;;;15.40;6.72;;;;;;;;;;6268726;28;20049;-73
2023/01/04 13:26:50;;;;;;;13.60;6.40;;;;;;;;;;6268252;28;20021;-74
2023/01/04 13:29:51;;;;;;;13.32;6.03;;;;;;;;;;6268571;28;20102;-74
2023/01/04 13:32:51;;;;;;;14.10;6.63;;;;;;;;;;6249604;28;20024;-73
2023/01/04 13:36:00;;;;;;;16.20;7.40;;;;;;;;;;6267171;28;20048;-73
2023/01/04 13:39:00;;;;;;;10.48;5.13;;;;;;;;;;6270073;28;20125;-74
2023/01/04 13:42:01;;;;;;;14.27;6.10;;;;;;;;;;6268627;28;20009;-73
2023/01/04 13:45:24;;;;;;;8.77;5.27;;;;;;;;;;6270126;28;20430;-74
2023/01/04 13:48:25;;;;;;;11.85;5.45;;;;;;;;;;6246799;28;20062;-74
2023/01/04 13:51:29;;;;;;;11.83;4.43;;;;;;;;;;6266535;28;20029;-73
2023/01/04 13:54:29;;;;;;;17.98;8.55;;;;;;;;;;6264640;28;20363;-74
2023/01/04 13:57:30;;;;;;;13.37;7.23;;;;;;;;;;6267876;28;20025;-73
2023/01/04 14:00:33;;;;;;;11.60;5.80;;;;;;;;;;6268640;28;20130;-74
2023/01/04 14:03:35;;;;;;;14.05;7.88;;;;;;;;;;6263965;28;20024;-74
2023/01/04 14:06:43;;;;;;;10.50;5.70;;;;;;;;;;6248832;28;20021;-74
2023/01/04 14:09:48;;;;;;;12.68;5.57;;;;;;;;;;6266608;28;20052;-74
2023/01/04 14:12:48;;;;;;;11.45;5.90;;;;;;;;;;6270924;28;20013;-73
2023/01/04 14:16:09;;;;;;;9.93;5.63;;;;;;;;;;6251876;28;20021;-74
2023/01/04 14:19:25;;;;;;;13.52;6.57;;;;;;;;;;6269202;28;20079;-73
2023/01/04 14:22:46;;;;;;;11.60;5.28;;;;;;;;;;6269608;28;20029;-73
2023/01/04 14:25:54;;;;;;;11.90;6.32;;;;;;;;;;6251047;28;20029;-74
2023/01/04 14:28:55;;;;;;;16.65;9.02;;;;;;;;;;6264261;28;20013;-73
2023/01/04 14:31:55;;;;;;;11.53;5.33;;;;;;;;;;6271151;28;20021;-73
2023/01/04 14:35:03;;;;;;;11.03;6.07;;;;;;;;;;6246418;28;20639;-74
2023/01/04 14:38:04;;;;;;;11.30;5.20;;;;;;;;;;6250899;28;20481;-74
2023/01/04 14:41:16;;;;;;;12.00;5.80;;;;;;;;;;6267402;28;20024;-74
2023/01/04 14:44:19;;;;;;;12.23;5.90;;;;;;;;;;6266159;28;20036;-74
2023/01/04 14:47:19;;;;;;;11.15;6.50;;;;;;;;;;6249619;28;20028;-75
2023/01/04 14:50:20;;;;;;;12.80;5.97;;;;;;;;;;6267517;28;20021;-74
2023/01/04 14:53:20;;;;;;;13.30;6.00;;;;;;;;;;6268110;28;20074;-73
2023/01/04 14:56:20;;;;;;;8.53;4.57;;;;;;;;;;6269953;28;20061;-72
2023/01/04 14:59:23;;;;;;;9.50;3.83;;;;;;;;;;6268603;28;20104;-73
2023/01/04 15:02:27;;;;;;;21.08;8.18;;;;;;;;;;6259797;28;20020;-72
2023/01/04 15:05:28;;;;;;;9.63;5.53;;;;;;;;;;6266002;28;20017;-72
2023/01/04 15:08:28;;;;;;;8.85;4.38;;;;;;;;;;6271753;28;20024;-73
2023/01/04 15:11:30;;;;;;;15.73;5.77;;;;;;;;;;6276220;28;20372;-72
2023/01/04 15:14:30;;;;;;;13.75;6.60;;;;;;;;;;6271159;28;20029;-73
2023/01/04 15:17:30;;;;;;;10.57;4.80;;;;;;;;;;6270228;28;20524;-74
2023/01/04 15:20:30;;;;;;;12.90;6.17;;;;;;;;;;6253142;28;20032;-73
2023/01/04 15:23:31;;;;;;;12.03;5.37;;;;;;;;;;6242120;28;20033;-74
2023/01/04 15:26:31;;;;;;;17.87;8.10;;;;;;;;;;6257203;28;20013;-74
2023/01/04 15:29:32;;;;;;;6.80;4.13;;;;;;;;;;6270436;28;20009;-73
2023/01/04 15:32:34;;;;;;;10.05;3.88;;;;;;;;;;6268675;28;20116;-73
2023/01/04 15:35:34;;;;;;;14.50;6.00;;;;;;;;;;6271713;28;20016;-73
2023/01/04 15:38:34;;;;;;;18.07;7.17;;;;;;;;;;6244856;28;20043;-75
2023/01/04 15:44:53;;;;;;;19.60;7.03;;;;;;;;;;6275862;28;20532;-74
2023/01/04 15:47:56;;;;;;;13.20;7.15;;;;;;;;;;6272899;28;20016;-73
2023/01/04 15:51:00;;;;;;;18.40;8.05;;;;;;;;;;6273052;28;20108;-73
2023/01/04 15:54:00;;;;;;;15.98;8.43;;;;;;;;;;6272113;28;20024;-74
2023/01/04 15:57:00;;;;;;;18.63;7.40;;;;;;;;;;6251708;28;20020;-74
2023/01/04 16:00:01;;;;;;;14.57;7.63;;;;;;;;;;6270685;28;20052;-75
2023/01/04 16:03:01;;;;;;;14.33;6.03;;;;;;;;;;6271904;28;20013;-73
2023/01/04 16:06:09;;;;;;;13.07;5.90;;;;;;;;;;6270649;28;20040;-73
2023/01/04 16:09:09;;;;;;;10.15;5.38;;;;;;;;;;6269639;28;20021;-74
2023/01/04 16:15:28;;;;;;;15.85;7.68;;;;;;;;;;6268898;28;20029;-73
2023/01/04 16:18:28;;;;;;;14.93;5.25;;;;;;;;;;6270676;28;20099;-75
2023/01/04 16:21:30;;;;;;;15.00;6.63;;;;;;;;;;6272376;28;20025;-75
2023/01/04 16:24:30;;;;;;;15.07;7.40;;;;;;;;;;6272632;28;20078;-74
2023/01/04 16:27:31;;;;;;;13.63;7.37;;;;;;;;;;6249050;28;20879;-74
2023/01/04 16:30:33;;;;;;;17.50;7.03;;;;;;;;;;6249460;28;20453;-74
2023/01/04 16:33:34;;;;;;;11.68;6.72;;;;;;;;;;6269354;28;20052;-74
2023/01/04 16:36:34;;;;;;;9.10;5.63;;;;;;;;;;6270766;28;20017;-74
2023/01/04 16:39:34;;;;;;;16.17;7.90;;;;;;;;;;6269109;28;20021;-73
2023/01/04 16:42:35;;;;;;;14.50;7.00;;;;;;;;;;6250199;28;20035;-74
2023/01/04 16:45:35;;;;;;;10.55;6.72;;;;;;;;;;6267995;28;20017;-74
2023/01/04 16:48:36;;;;;;;14.35;7.90;;;;;;;;;;6268887;28;20451;-74
2023/01/04 16:51:37;;;;;;;14.40;7.53;;;;;;;;;;6251680;28;20027;-74
2023/01/04 16:54:37;;;;;;;26.60;11.43;;;;;;;;;;6269305;28;20090;-73
2023/01/04 16:57:38;;;;;;;30.90;10.40;;;;;;;;;;6269875;28;20017;-73
2023/01/04 17:00:38;;;;;;;15.40;8.10;;;;;;;;;;6267690;28;20403;-72
2023/01/04 17:03:38;;;;;;;13.18;6.65;;;;;;;;;;6270171;28;20476;-72
2023/01/04 17:06:40;;;;;;;16.13;6.72;;;;;;;;;;6264827;28;20107;-72
2023/01/04 17:09:40;;;;;;;;;;;;;;;;;;6270236;28;20013;-73
2023/01/04 17:12:40;;;;;;;12.77;6.18;;;;;;;;;;6270763;28;19904;-72
2023/01/04 17:15:40;;;;;;;8.40;4.72;;;;;;;;;;6249414;28;20056;-72
2023/01/04 17:18:41;;;;;;;16.50;7.30;;;;;;;;;;6268903;28;20057;-73
2023/01/04 17:21:41;;;;;;;15.07;7.47;;;;;;;;;;6264676;28;20146;-73
2023/01/04 17:24:42;;;;;;;13.57;6.38;;;;;;;;;;6270683;28;20017;-73
2023/01/04 17:27:42;;;;;;;15.87;5.77;;;;;;;;;;6251786;28;20057;-73
2023/01/04 17:30:42;;;;;;;10.80;5.40;;;;;;;;;;6274727;28;20013;-74
2023/01/04 17:33:42;;;;;;;10.83;6.93;;;;;;;;;;6246876;28;20052;-73
2023/01/04 17:36:43;;;;;;;9.63;5.00;;;;;;;;;;6255637;28;20112;-73
2023/01/04 17:39:43;;;;;;;12.27;6.30;;;;;;;;;;6271033;28;20481;-74
2023/01/04 17:42:43;;;;;;;13.93;6.63;;;;;;;;;;6269387;28;20020;-74
2023/01/04 17:45:44;;;;;;;12.27;7.17;;;;;;;;;;6271087;28;20013;-74
2023/01/04 17:48:44;;;;;;;18.63;7.70;;;;;;;;;;6270685;28;20016;-72
2023/01/04 17:51:44;;;;;;;16.77;7.30;;;;;;;;;;6252783;28;20021;-72
2023/01/04 17:54:45;;;;;;;13.20;6.40;;;;;;;;;;6271085;28;20423;-73
2023/01/04 17:57:45;;;;;;;14.27;8.27;;;;;;;;;;6267660;28;20484;-72
2023/01/04 18:00:45;;;;;;;9.07;6.23;;;;;;;;;;6270394;28;20017;-73
2023/01/04 18:03:50;;;;;;;10.37;5.87;;;;;;;;;;6271351;28;20055;-74
2023/01/04 18:06:50;;;;;;;12.85;5.88;;;;;;;;;;6268974;28;20059;-73
2023/01/04 18:09:54;;;;;;;22.92;9.38;;;;;;;;;;6269694;28;20017;-73
2023/01/04 18:12:54;;;;;;;32.55;14.20;;;;;;;;;;6268407;28;20429;-73
2023/01/04 18:15:57;;;;;;;19.58;7.70;;;;;;;;;;6267880;28;20431;-74
2023/01/04 18:18:58;;;;;;;13.05;7.00;;;;;;;;;;6269530;28;20041;-73
2023/01/04 18:21:59;;;;;;;12.50;5.90;;;;;;;;;;6268252;28;20036;-74
2023/01/04 18:25:00;;;;;;;8.93;4.23;;;;;;;;;;6267795;28;20009;-74
2023/01/04 18:28:00;;;;;;;13.25;6.35;;;;;;;;;;6268917;28;20483;-74
2023/01/04 18:31:08;;;;;;;14.33;6.27;;;;;;;;;;6267395;28;20037;-74
2023/01/04 18:34:09;;;;;;;12.15;5.65;;;;;;;;;;6254190;28;20043;-74
2023/01/04 18:37:09;;;;;;;11.03;5.23;;;;;;;;;;6263869;28;20029;-74
2023/01/04 18:40:09;;;;;;;12.13;5.78;;;;;;;;;;6251157;28;20476;-73